sensor_id;sensor_type;location;lat;lon;timestamp;pressure;altitude;pressure_sealevel;temperature;humidity
6938;BME280;40040;42.706;23.372;2023-08-17T00:00:41;149580.31;;;21.92;100.00
6938;BME280;40040;42.706;23.372;2023-08-17T00:03:08;149585.31;;;21.94;100.00
6938;BME280;40040;42.706;23.372;2023-08-17T00:05:35;149590.28;;;21.96;100.00
6938;BME280;40040;42.706;23.372;2023-08-17T00:08:02;149592.75;;;21.97;100.00
6938;BME280;40040;42.706;23.372;2023-08-17T00:10:31;149591.50;;;21.97;100.00
6938;BME280;40040;42.706;23.372;2023-08-17T00:12:57;149500.66;;;21.60;100.00
6938;BME280;40040;42.706;23.372;2023-08-17T00:15:24;149500.66;;;21.60;100.00
6938;BME280;40040;42.706;23.372;2023-08-17T00:17:51;149562.91;;;21.85;100.00
6938;BME280;40040;42.706;23.372;2023-08-17T00:20:18;149433.53;;;21.33;100.00
6938;BME280;40040;42.706;23.372;2023-08-17T00:22:44;149528.03;;;21.71;100.00
6938;BME280;40040;42.706;23.372;2023-08-17T00:25:12;149528.03;;;21.71;100.00
6938;BME280;40040;42.706;23.372;2023-08-17T00:27:40;149523.06;;;21.69;100.00
6938;BME280;40040;42.706;23.372;2023-08-17T00:30:08;149518.06;;;21.67;100.00
6938;BME280;40040;42.706;23.372;2023-08-17T00:32:35;149453.41;;;21.41;100.00
6938;BME280;40040;42.706;23.372;2023-08-17T00:35:02;149505.63;;;21.62;100.00
6938;BME280;40040;42.706;23.372;2023-08-17T00:37:28;149411.13;;;21.24;100.00
6938;BME280;40040;42.706;23.372;2023-08-17T00:39:56;149488.22;;;21.55;100.00
6938;BME280;40040;42.706;23.372;2023-08-17T00:42:22;149397.44;;;21.18;100.00
6938;BME280;40040;42.706;23.372;2023-08-17T00:44:51;149505.63;;;21.62;100.00
6938;BME280;40040;42.706;23.372;2023-08-17T00:47:17;149478.31;;;21.51;100.00
6938;BME280;40040;42.706;23.372;2023-08-17T00:49:44;149475.78;;;21.50;100.00
6938;BME280;40040;42.706;23.372;2023-08-17T00:52:11;149485.75;;;21.54;100.00
6938;BME280;40040;42.706;23.372;2023-08-17T00:54:38;149488.22;;;21.55;100.00
6938;BME280;40040;42.706;23.372;2023-08-17T00:57:05;149485.75;;;21.54;100.00
6938;BME280;40040;42.706;23.372;2023-08-17T00:59:32;149465.88;;;21.46;100.00
6938;BME280;40040;42.706;23.372;2023-08-17T01:02:00;149449.69;;;21.40;100.00
6938;BME280;40040;42.706;23.372;2023-08-17T01:04:27;149435.97;;;21.34;100.00
6938;BME280;40040;42.706;23.372;2023-08-17T01:06:54;149438.50;;;21.35;100.00
6938;BME280;40040;42.706;23.372;2023-08-17T01:09:21;149426.06;;;21.30;100.00
6938;BME280;40040;42.706;23.372;2023-08-17T01:11:51;149413.63;;;21.25;100.00
6938;BME280;40040;42.706;23.372;2023-08-17T01:14:25;149416.13;;;21.26;100.00
6938;BME280;40040;42.706;23.372;2023-08-17T01:16:58;149409.88;;;21.23;100.00
6938;BME280;40040;42.706;23.372;2023-08-17T01:19:29;149413.63;;;21.25;100.00
6938;BME280;40040;42.706;23.372;2023-08-17T01:22:00;149427.28;;;21.31;100.00
6938;BME280;40040;42.706;23.372;2023-08-17T01:24:31;149421.09;;;21.28;100.00
6938;BME280;40040;42.706;23.372;2023-08-17T01:26:58;149411.13;;;21.24;100.00
6938;BME280;40040;42.706;23.372;2023-08-17T01:29:25;149399.97;;;21.19;100.00
6938;BME280;40040;42.706;23.372;2023-08-17T01:31:55;149390.00;;;21.15;100.00
6938;BME280;40040;42.706;23.372;2023-08-17T01:34:27;149325.31;;;20.89;100.00
6938;BME280;40040;42.706;23.372;2023-08-17T01:36:57;149358.91;;;21.03;100.00
6938;BME280;40040;42.706;23.372;2023-08-17T01:39:34;149361.41;;;21.04;100.00
6938;BME280;40040;42.706;23.372;2023-08-17T01:42:04;149376.31;;;21.10;100.00
6938;BME280;40040;42.706;23.372;2023-08-17T01:44:32;149269.38;;;20.67;100.00
6938;BME280;40040;42.706;23.372;2023-08-17T01:46:59;149371.34;;;21.08;100.00
6938;BME280;40040;42.706;23.372;2023-08-17T01:49:25;149321.56;;;20.88;100.00
6938;BME280;40040;42.706;23.372;2023-08-17T01:51:53;149300.44;;;20.79;100.00
6938;BME280;40040;42.706;23.372;2023-08-17T01:54:20;149341.44;;;20.96;100.00
6938;BME280;40040;42.706;23.372;2023-08-17T01:56:48;149353.91;;;21.01;100.00
6938;BME280;40040;42.706;23.372;2023-08-17T01:59:15;149330.28;;;20.91;100.00
6938;BME280;40040;42.706;23.372;2023-08-17T02:01:42;149321.56;;;20.88;100.00
6938;BME280;40040;42.706;23.372;2023-08-17T02:04:09;149309.16;;;20.83;100.00
6938;BME280;40040;42.706;23.372;2023-08-17T02:06:35;149295.47;;;20.77;100.00
6938;BME280;40040;42.706;23.372;2023-08-17T02:09:02;149269.38;;;20.67;100.00
6938;BME280;40040;42.706;23.372;2023-08-17T02:11:29;149265.66;;;20.65;100.00
6938;BME280;40040;42.706;23.372;2023-08-17T02:13:57;149273.09;;;20.68;100.00
6938;BME280;40040;42.706;23.372;2023-08-17T02:16:24;149294.22;;;20.77;100.00
6938;BME280;40040;42.706;23.372;2023-08-17T02:18:51;149295.47;;;20.77;100.00
6938;BME280;40040;42.706;23.372;2023-08-17T02:21:18;149291.75;;;20.76;100.00
6938;BME280;40040;42.706;23.372;2023-08-17T02:23:45;149294.22;;;20.77;100.00
6938;BME280;40040;42.706;23.372;2023-08-17T02:26:11;149304.16;;;20.81;100.00
6938;BME280;40040;42.706;23.372;2023-08-17T02:28:38;149301.72;;;20.80;100.00
6938;BME280;40040;42.706;23.372;2023-08-17T02:31:06;149293.00;;;20.76;100.00
6938;BME280;40040;42.706;23.372;2023-08-17T02:33:33;149286.78;;;20.74;100.00
6938;BME280;40040;42.706;23.372;2023-08-17T02:36:02;149301.72;;;20.80;100.00
6938;BME280;40040;42.706;23.372;2023-08-17T02:38:29;149283.03;;;20.72;100.00
6938;BME280;40040;42.706;23.372;2023-08-17T02:40:56;149286.78;;;20.74;100.00
6938;BME280;40040;42.706;23.372;2023-08-17T02:43:23;149286.78;;;20.74;100.00
6938;BME280;40040;42.706;23.372;2023-08-17T02:45:50;149291.75;;;20.76;100.00
6938;BME280;40040;42.706;23.372;2023-08-17T02:48:18;149243.25;;;20.56;100.00
6938;BME280;40040;42.706;23.372;2023-08-17T02:50:45;149290.50;;;20.75;100.00
6938;BME280;40040;42.706;23.372;2023-08-17T02:53:11;149271.81;;;20.68;100.00
6938;BME280;40040;42.706;23.372;2023-08-17T02:55:38;149229.59;;;20.51;100.00
6938;BME280;40040;42.706;23.372;2023-08-17T02:58:05;149266.91;;;20.66;100.00
6938;BME280;40040;42.706;23.372;2023-08-17T03:00:32;149251.97;;;20.60;100.00
6938;BME280;40040;42.706;23.372;2023-08-17T03:02:59;149244.53;;;20.57;100.00
6938;BME280;40040;42.706;23.372;2023-08-17T03:05:27;149235.81;;;20.53;100.00
6938;BME280;40040;42.706;23.372;2023-08-17T03:07:53;149229.59;;;20.51;100.00
6938;BME280;40040;42.706;23.372;2023-08-17T03:10:20;149223.41;;;20.48;100.00
6938;BME280;40040;42.706;23.372;2023-08-17T03:12:47;149192.31;;;20.36;100.00
6938;BME280;40040;42.706;23.372;2023-08-17T03:15:14;149199.75;;;20.39;100.00
6938;BME280;40040;42.706;23.372;2023-08-17T03:17:41;149132.63;;;20.11;100.00
6938;BME280;40040;42.706;23.372;2023-08-17T03:20:08;149189.81;;;20.35;100.00
6938;BME280;40040;42.706;23.372;2023-08-17T03:22:36;149177.38;;;20.30;100.00
6938;BME280;40040;42.706;23.372;2023-08-17T03:25:04;149184.88;;;20.33;100.00
6938;BME280;40040;42.706;23.372;2023-08-17T03:27:31;149153.81;;;20.20;100.00
6938;BME280;40040;42.706;23.372;2023-08-17T03:29:58;149148.81;;;20.18;100.00
6938;BME280;40040;42.706;23.372;2023-08-17T03:32:24;149120.22;;;20.06;100.00
6938;BME280;40040;42.706;23.372;2023-08-17T03:34:51;149109.00;;;20.02;100.00
6938;BME280;40040;42.706;23.372;2023-08-17T03:37:18;149125.16;;;20.08;100.00
6938;BME280;40040;42.706;23.372;2023-08-17T03:39:46;149137.63;;;20.13;100.00
6938;BME280;40040;42.706;23.372;2023-08-17T03:42:13;149132.63;;;20.11;100.00
6938;BME280;40040;42.706;23.372;2023-08-17T03:44:40;149125.16;;;20.08;100.00
6938;BME280;40040;42.706;23.372;2023-08-17T03:47:06;149120.22;;;20.06;100.00
6938;BME280;40040;42.706;23.372;2023-08-17T03:49:33;149110.25;;;20.02;100.00
6938;BME280;40040;42.706;23.372;2023-08-17T03:52:00;149110.25;;;20.02;100.00
6938;BME280;40040;42.706;23.372;2023-08-17T03:54:27;149120.22;;;20.06;100.00
6938;BME280;40040;42.706;23.372;2023-08-17T03:56:55;149118.97;;;20.06;100.00
6938;BME280;40040;42.706;23.372;2023-08-17T03:59:22;149125.16;;;20.08;100.00
6938;BME280;40040;42.706;23.372;2023-08-17T04:01:50;149127.66;;;20.09;100.00
6938;BME280;40040;42.706;23.372;2023-08-17T04:04:17;149075.47;;;19.88;100.00
6938;BME280;40040;42.706;23.372;2023-08-17T04:06:44;149138.81;;;20.14;100.00
6938;BME280;40040;42.706;23.372;2023-08-17T04:09:10;149143.84;;;20.16;100.00
6938;BME280;40040;42.706;23.372;2023-08-17T04:11:37;149146.38;;;20.17;100.00
6938;BME280;40040;42.706;23.372;2023-08-17T04:14:05;149145.09;;;20.17;100.00
6938;BME280;40040;42.706;23.372;2023-08-17T04:16:34;149104.03;;;20.00;100.00
6938;BME280;40040;42.706;23.372;2023-08-17T04:19:01;149140.06;;;20.14;100.00
6938;BME280;40040;42.706;23.372;2023-08-17T04:21:28;149115.25;;;20.04;100.00
6938;BME280;40040;42.706;23.372;2023-08-17T04:23:54;149099.06;;;19.98;100.00
6938;BME280;40040;42.706;23.372;2023-08-17T04:26:21;149020.84;;;19.66;100.00
6938;BME280;40040;42.706;23.372;2023-08-17T04:28:49;149069.25;;;19.86;100.00
6938;BME280;40040;42.706;23.372;2023-08-17T04:31:17;149086.63;;;19.93;100.00
6938;BME280;40040;42.706;23.372;2023-08-17T04:33:44;149085.44;;;19.92;100.00
6938;BME280;40040;42.706;23.372;2023-08-17T04:36:10;149010.88;;;19.62;100.00
6938;BME280;40040;42.706;23.372;2023-08-17T04:38:37;149102.81;;;19.99;100.00
6938;BME280;40040;42.706;23.372;2023-08-17T04:41:04;149085.44;;;19.92;100.00
6938;BME280;40040;42.706;23.372;2023-08-17T04:43:31;149087.88;;;19.93;100.00
6938;BME280;40040;42.706;23.372;2023-08-17T04:45:58;149027.03;;;19.69;100.00
6938;BME280;40040;42.706;23.372;2023-08-17T04:48:26;149135.09;;;20.12;100.00
6938;BME280;40040;42.706;23.372;2023-08-17T04:50:52;149142.53;;;20.15;100.00
6938;BME280;40040;42.706;23.372;2023-08-17T04:53:19;149155.06;;;20.21;100.00
6938;BME280;40040;42.706;23.372;2023-08-17T04:55:46;149176.19;;;20.29;100.00
6938;BME280;40040;42.706;23.372;2023-08-17T04:58:13;149150.09;;;20.19;100.00
6938;BME280;40040;42.706;23.372;2023-08-17T05:00:39;149230.84;;;20.51;100.00
6938;BME280;40040;42.706;23.372;2023-08-17T05:03:06;149210.97;;;20.43;100.00
6938;BME280;40040;42.706;23.372;2023-08-17T05:05:35;149299.19;;;20.79;100.00
6938;BME280;40040;42.706;23.372;2023-08-17T05:08:03;149332.75;;;20.92;100.00
6938;BME280;40040;42.706;23.372;2023-08-17T05:10:29;149360.16;;;21.03;100.00
6938;BME280;40040;42.706;23.372;2023-08-17T05:12:56;149388.75;;;21.15;100.00
6938;BME280;40040;42.706;23.372;2023-08-17T05:15:23;149423.56;;;21.29;100.00
6938;BME280;40040;42.706;23.372;2023-08-17T05:17:50;149470.81;;;21.48;100.00
6938;BME280;40040;42.706;23.372;2023-08-17T05:20:17;149501.91;;;21.61;100.00
6938;BME280;40040;42.706;23.372;2023-08-17T05:22:47;149550.47;;;21.80;100.00
6938;BME280;40040;42.706;23.372;2023-08-17T05:25:13;149580.31;;;21.92;98.83
6938;BME280;40040;42.706;23.372;2023-08-17T05:27:40;149642.56;;;22.17;98.23
6938;BME280;40040;42.706;23.372;2023-08-17T05:30:08;149682.34;;;22.33;96.63
6938;BME280;40040;42.706;23.372;2023-08-17T05:32:35;149739.63;;;22.57;94.79
6938;BME280;40040;42.706;23.372;2023-08-17T05:35:01;149810.59;;;22.85;91.76
6938;BME280;40040;42.706;23.372;2023-08-17T05:37:28;149849.19;;;23.01;90.05
6938;BME280;40040;42.706;23.372;2023-08-17T05:39:56;149903.94;;;23.23;89.15
6938;BME280;40040;42.706;23.372;2023-08-17T05:42:23;149892.75;;;23.18;89.92
6938;BME280;40040;42.706;23.372;2023-08-17T05:44:50;149988.69;;;23.57;89.95
6938;BME280;40040;42.706;23.372;2023-08-17T05:47:17;150053.47;;;23.83;90.41
6938;BME280;40040;42.706;23.372;2023-08-17T05:49:44;150123.22;;;24.11;88.03
6938;BME280;40040;42.706;23.372;2023-08-17T05:52:11;150180.56;;;24.34;86.25
6938;BME280;40040;42.706;23.372;2023-08-17T05:54:38;150168.09;;;24.29;85.92
6938;BME280;40040;42.706;23.372;2023-08-17T05:57:07;150226.63;;;24.53;84.92
6938;BME280;40040;42.706;23.372;2023-08-17T05:59:34;150220.44;;;24.50;84.69
6938;BME280;40040;42.706;23.372;2023-08-17T06:02:01;150260.31;;;24.67;86.90
6938;BME280;40040;42.706;23.372;2023-08-17T06:04:27;150292.75;;;24.80;87.93
6938;BME280;40040;42.706;23.372;2023-08-17T06:06:55;150312.72;;;24.88;90.00
6938;BME280;40040;42.706;23.372;2023-08-17T06:09:21;150266.56;;;24.69;90.46
6938;BME280;40040;42.706;23.372;2023-08-17T06:11:48;150417.38;;;25.30;90.01
6938;BME280;40040;42.706;23.372;2023-08-17T06:14:16;150412.44;;;25.28;89.16
6938;BME280;40040;42.706;23.372;2023-08-17T06:16:43;150419.91;;;25.31;88.63
6938;BME280;40040;42.706;23.372;2023-08-17T06:19:10;150488.53;;;25.58;88.61
6938;BME280;40040;42.706;23.372;2023-08-17T06:21:37;150524.72;;;25.73;88.27
6938;BME280;40040;42.706;23.372;2023-08-17T06:24:04;150547.13;;;25.82;87.83
6938;BME280;40040;42.706;23.372;2023-08-17T06:26:31;150572.09;;;25.92;85.98
6938;BME280;40040;42.706;23.372;2023-08-17T06:28:58;150683.16;;;26.37;84.23
6938;BME280;40040;42.706;23.372;2023-08-17T06:31:26;150700.63;;;26.44;83.74
6938;BME280;40040;42.706;23.372;2023-08-17T06:33:53;150781.75;;;26.77;82.26
6938;BME280;40040;42.706;23.372;2023-08-17T06:36:20;150809.22;;;26.88;80.69
6938;BME280;40040;42.706;23.372;2023-08-17T06:38:47;150770.53;;;26.72;80.70
6938;BME280;40040;42.706;23.372;2023-08-17T06:41:15;150855.38;;;27.06;79.43
6938;BME280;40040;42.706;23.372;2023-08-17T06:43:42;150886.59;;;27.19;78.74
6938;BME280;40040;42.706;23.372;2023-08-17T06:46:09;150914.13;;;27.30;78.89
6938;BME280;40040;42.706;23.372;2023-08-17T06:48:37;150919.13;;;27.32;78.58
6938;BME280;40040;42.706;23.372;2023-08-17T06:51:04;150916.59;;;27.31;77.72
6938;BME280;40040;42.706;23.372;2023-08-17T06:53:32;150924.06;;;27.34;77.47
6938;BME280;40040;42.706;23.372;2023-08-17T06:55:58;150944.09;;;27.42;76.37
6938;BME280;40040;42.706;23.372;2023-08-17T06:58:26;150949.09;;;27.44;77.86
6938;BME280;40040;42.706;23.372;2023-08-17T07:00:52;151009.00;;;27.68;76.83
6938;BME280;40040;42.706;23.372;2023-08-17T07:03:19;151098.94;;;28.04;75.00
6938;BME280;40040;42.706;23.372;2023-08-17T07:05:48;151147.66;;;28.24;73.36
6938;BME280;40040;42.706;23.372;2023-08-17T07:08:15;151176.38;;;28.35;71.41
6938;BME280;40040;42.706;23.372;2023-08-17T07:10:42;151301.34;;;28.86;70.64
6938;BME280;40040;42.706;23.372;2023-08-17T07:13:09;151376.38;;;29.16;67.72
6938;BME280;40040;42.706;23.372;2023-08-17T07:15:36;151390.13;;;29.21;65.63
6938;BME280;40040;42.706;23.372;2023-08-17T07:18:03;151388.88;;;29.21;65.88
6938;BME280;40040;42.706;23.372;2023-08-17T07:20:30;151367.63;;;29.12;66.77
6938;BME280;40040;42.706;23.372;2023-08-17T07:22:58;151281.38;;;28.77;63.88
6938;BME280;40040;42.706;23.372;2023-08-17T07:25:25;151292.59;;;28.82;63.51
6938;BME280;40040;42.706;23.372;2023-08-17T07:27:52;151280.09;;;28.77;64.26
6938;BME280;40040;42.706;23.372;2023-08-17T07:30:19;151302.59;;;28.86;65.17
6938;BME280;40040;42.706;23.372;2023-08-17T07:32:46;151386.38;;;29.20;65.38
6938;BME280;40040;42.706;23.372;2023-08-17T07:35:13;151321.38;;;28.94;63.89
6938;BME280;40040;42.706;23.372;2023-08-17T07:37:40;151348.81;;;29.05;63.38
6938;BME280;40040;42.706;23.372;2023-08-17T07:40:09;151398.88;;;29.25;63.19
6938;BME280;40040;42.706;23.372;2023-08-17T07:42:36;151432.63;;;29.38;62.46
6938;BME280;40040;42.706;23.372;2023-08-17T07:45:04;151443.91;;;29.43;61.93
6938;BME280;40040;42.706;23.372;2023-08-17T07:47:31;151447.63;;;29.44;62.13
6938;BME280;40040;42.706;23.372;2023-08-17T07:49:58;151527.66;;;29.76;62.07
6938;BME280;40040;42.706;23.372;2023-08-17T07:52:25;151608.97;;;30.09;58.57
6938;BME280;40040;42.706;23.372;2023-08-17T07:54:52;151562.66;;;29.91;58.99
6938;BME280;40040;42.706;23.372;2023-08-17T07:57:20;151623.94;;;30.15;56.86
6938;BME280;40040;42.706;23.372;2023-08-17T07:59:47;151611.44;;;30.10;57.54
6938;BME280;40040;42.706;23.372;2023-08-17T08:02:13;151665.28;;;30.32;57.13
6938;BME280;40040;42.706;23.372;2023-08-17T08:04:40;151705.25;;;30.48;53.89
6938;BME280;40040;42.706;23.372;2023-08-17T08:07:07;151716.53;;;30.52;54.98
6938;BME280;40040;42.706;23.372;2023-08-17T08:09:34;151786.63;;;30.80;53.43
6938;BME280;40040;42.706;23.372;2023-08-17T08:12:01;151845.41;;;31.04;54.16
6938;BME280;40040;42.706;23.372;2023-08-17T08:14:30;151985.63;;;31.60;52.37
6938;BME280;40040;42.706;23.372;2023-08-17T08:16:57;151979.34;;;31.58;52.25
6938;BME280;40040;42.706;23.372;2023-08-17T08:19:24;151914.22;;;31.32;52.62
6938;BME280;40040;42.706;23.372;2023-08-17T08:21:50;151881.72;;;31.19;54.51
6938;BME280;40040;42.706;23.372;2023-08-17T08:24:17;151870.41;;;31.14;53.30
6938;BME280;40040;42.706;23.372;2023-08-17T08:26:44;151945.56;;;31.44;53.86
6938;BME280;40040;42.706;23.372;2023-08-17T08:29:11;152016.91;;;31.73;53.86
6938;BME280;40040;42.706;23.372;2023-08-17T08:31:39;152026.88;;;31.77;54.31
6938;BME280;40040;42.706;23.372;2023-08-17T08:34:06;152087.06;;;32.01;53.13
6938;BME280;40040;42.706;23.372;2023-08-17T08:36:32;152139.59;;;32.22;52.58
6938;BME280;40040;42.706;23.372;2023-08-17T08:38:59;152229.81;;;32.58;52.62
6938;BME280;40040;42.706;23.372;2023-08-17T08:41:27;152252.38;;;32.67;51.64
6938;BME280;40040;42.706;23.372;2023-08-17T08:43:55;152221.06;;;32.55;50.58
6938;BME280;40040;42.706;23.372;2023-08-17T08:46:24;152142.13;;;32.23;51.14
6938;BME280;40040;42.706;23.372;2023-08-17T08:48:54;152133.34;;;32.20;51.93
6938;BME280;40040;42.706;23.372;2023-08-17T08:51:25;152030.63;;;31.78;51.24
6938;BME280;40040;42.706;23.372;2023-08-17T08:54:00;152013.16;;;31.71;52.38
6938;BME280;40040;42.706;23.372;2023-08-17T08:56:31;152023.13;;;31.75;53.87
6938;BME280;40040;42.706;23.372;2023-08-17T08:59:01;151933.06;;;31.39;51.92
6938;BME280;40040;42.706;23.372;2023-08-17T09:01:30;151978.13;;;31.57;52.54
6938;BME280;40040;42.706;23.372;2023-08-17T09:04:00;152119.56;;;32.14;50.72
6938;BME280;40040;42.706;23.372;2023-08-17T09:06:29;152174.66;;;32.36;49.37
6938;BME280;40040;42.706;23.372;2023-08-17T09:08:57;152312.47;;;32.91;47.92
6938;BME280;40040;42.706;23.372;2023-08-17T09:11:25;152315.00;;;32.92;48.12
6938;BME280;40040;42.706;23.372;2023-08-17T09:13:53;152370.09;;;33.15;47.57
6938;BME280;40040;42.706;23.372;2023-08-17T09:16:20;152464.13;;;33.52;48.19
6938;BME280;40040;42.706;23.372;2023-08-17T09:18:47;152553.06;;;33.88;47.21
6938;BME280;40040;42.706;23.372;2023-08-17T09:21:21;152613.28;;;34.12;45.89
6938;BME280;40040;42.706;23.372;2023-08-17T09:23:52;152670.91;;;34.35;45.08
6938;BME280;40040;42.706;23.372;2023-08-17T09:26:20;152724.88;;;34.57;43.56
6938;BME280;40040;42.706;23.372;2023-08-17T09:28:49;152846.50;;;35.05;43.65
6938;BME280;40040;42.706;23.372;2023-08-17T09:31:16;152691.03;;;34.43;45.04
6938;BME280;40040;42.706;23.372;2023-08-17T09:33:43;152590.72;;;34.03;44.92
6938;BME280;40040;42.706;23.372;2023-08-17T09:36:11;152610.75;;;34.11;45.69
6938;BME280;40040;42.706;23.372;2023-08-17T09:38:40;152698.53;;;34.46;43.64
6938;BME280;40040;42.706;23.372;2023-08-17T09:41:07;152718.56;;;34.54;43.50
6938;BME280;40040;42.706;23.372;2023-08-17T09:43:34;152672.16;;;34.36;42.79
6938;BME280;40040;42.706;23.372;2023-08-17T09:46:02;152660.91;;;34.31;40.34
6938;BME280;40040;42.706;23.372;2023-08-17T09:48:29;152603.25;;;34.08;40.27
6938;BME280;40040;42.706;23.372;2023-08-17T09:50:57;152617.03;;;34.14;40.03
6938;BME280;40040;42.706;23.372;2023-08-17T09:53:24;152596.97;;;34.05;40.10
6938;BME280;40040;42.706;23.372;2023-08-17T09:55:53;152673.44;;;34.36;40.88
6938;BME280;40040;42.706;23.372;2023-08-17T09:58:21;152708.59;;;34.50;40.57
6938;BME280;40040;42.706;23.372;2023-08-17T10:00:49;152703.56;;;34.48;38.78
6938;BME280;40040;42.706;23.372;2023-08-17T10:03:19;152650.88;;;34.27;39.85
6938;BME280;40040;42.706;23.372;2023-08-17T10:05:51;152598.22;;;34.06;40.31
6938;BME280;40040;42.706;23.372;2023-08-17T10:08:19;152590.72;;;34.03;40.66
6938;BME280;40040;42.706;23.372;2023-08-17T10:10:47;152622.06;;;34.16;42.19
6938;BME280;40040;42.706;23.372;2023-08-17T10:13:27;152643.34;;;34.24;41.76
6938;BME280;40040;42.706;23.372;2023-08-17T10:16:02;152734.91;;;34.61;41.13
6938;BME280;40040;42.706;23.372;2023-08-17T10:18:37;152771.22;;;34.75;40.66
6938;BME280;40040;42.706;23.372;2023-08-17T10:21:13;152742.41;;;34.64;39.62
6938;BME280;40040;42.706;23.372;2023-08-17T10:23:40;152619.53;;;34.15;39.70
6938;BME280;40040;42.706;23.372;2023-08-17T10:26:06;152673.44;;;34.36;39.53
6938;BME280;40040;42.706;23.372;2023-08-17T10:28:35;152776.25;;;34.77;38.70
6938;BME280;40040;42.706;23.372;2023-08-17T10:31:03;152886.66;;;35.22;38.23
6938;BME280;40040;42.706;23.372;2023-08-17T10:33:30;152998.28;;;35.66;37.24
6938;BME280;40040;42.706;23.372;2023-08-17T10:35:57;152857.78;;;35.10;38.22
6938;BME280;40040;42.706;23.372;2023-08-17T10:38:24;152874.13;;;35.17;38.38
6938;BME280;40040;42.706;23.372;2023-08-17T10:41:09;152976.97;;;35.58;40.02
6938;BME280;40040;42.706;23.372;2023-08-17T10:43:55;153087.41;;;36.02;39.41
6938;BME280;40040;42.706;23.372;2023-08-17T10:46:32;153175.25;;;36.37;37.94
6938;BME280;40040;42.706;23.372;2023-08-17T10:49:02;153131.31;;;36.19;37.54
6938;BME280;40040;42.706;23.372;2023-08-17T10:51:30;153067.31;;;35.94;37.28
6938;BME280;40040;42.706;23.372;2023-08-17T10:53:58;153087.41;;;36.02;37.73
6938;BME280;40040;42.706;23.372;2023-08-17T10:56:26;153152.66;;;36.28;36.95
6938;BME280;40040;42.706;23.372;2023-08-17T10:58:53;153162.66;;;36.32;35.96
6938;BME280;40040;42.706;23.372;2023-08-17T11:01:33;153113.75;;;36.12;35.98
6938;BME280;40040;42.706;23.372;2023-08-17T11:04:10;153012.09;;;35.72;37.37
6938;BME280;40040;42.706;23.372;2023-08-17T11:06:38;153002.03;;;35.68;37.82
6938;BME280;40040;42.706;23.372;2023-08-17T11:09:07;153014.59;;;35.73;38.35
6938;BME280;40040;42.706;23.372;2023-08-17T11:11:34;153012.09;;;35.72;38.18
6938;BME280;40040;42.706;23.372;2023-08-17T11:14:01;153177.78;;;36.38;37.90
6938;BME280;40040;42.706;23.372;2023-08-17T11:16:28;153230.47;;;36.59;37.93
6938;BME280;40040;42.706;23.372;2023-08-17T11:18:56;153200.38;;;36.47;35.89
6938;BME280;40040;42.706;23.372;2023-08-17T11:21:25;153167.69;;;36.34;35.46
6938;BME280;40040;42.706;23.372;2023-08-17T11:23:55;153329.66;;;36.99;34.59
6938;BME280;40040;42.706;23.372;2023-08-17T11:26:23;153348.50;;;37.06;34.94
6938;BME280;40040;42.706;23.372;2023-08-17T11:28:50;153318.38;;;36.94;34.99
6938;BME280;40040;42.706;23.372;2023-08-17T11:31:17;153333.41;;;37.00;35.20
6938;BME280;40040;42.706;23.372;2023-08-17T11:33:44;153211.66;;;36.52;36.45
6938;BME280;40040;42.706;23.372;2023-08-17T11:36:13;153077.38;;;35.98;36.56
6938;BME280;40040;42.706;23.372;2023-08-17T11:38:42;153137.56;;;36.22;37.10
6938;BME280;40040;42.706;23.372;2023-08-17T11:41:09;153142.59;;;36.24;36.99
6938;BME280;40040;42.706;23.372;2023-08-17T11:43:37;153061.06;;;35.91;37.07
6938;BME280;40040;42.706;23.372;2023-08-17T11:46:04;153077.38;;;35.98;35.22
6938;BME280;40040;42.706;23.372;2023-08-17T11:48:31;153113.75;;;36.12;37.54
6938;BME280;40040;42.706;23.372;2023-08-17T11:50:58;153037.16;;;35.82;38.70
6938;BME280;40040;42.706;23.372;2023-08-17T11:53:32;152929.28;;;35.39;38.76
6938;BME280;40040;42.706;23.372;2023-08-17T11:55:59;152757.44;;;34.70;39.98
6938;BME280;40040;42.706;23.372;2023-08-17T11:58:36;152844.03;;;35.04;40.67
6938;BME280;40040;42.706;23.372;2023-08-17T12:01:09;152870.31;;;35.15;40.38
6938;BME280;40040;42.706;23.372;2023-08-17T12:03:36;152840.22;;;35.03;40.33
6938;BME280;40040;42.706;23.372;2023-08-17T12:06:04;152889.13;;;35.23;39.77
6938;BME280;40040;42.706;23.372;2023-08-17T12:08:33;152801.31;;;34.87;41.40
6938;BME280;40040;42.706;23.372;2023-08-17T12:11:00;152791.31;;;34.83;41.40
6938;BME280;40040;42.706;23.372;2023-08-17T12:13:31;152881.63;;;35.20;41.34
6938;BME280;40040;42.706;23.372;2023-08-17T12:15:58;152911.72;;;35.32;41.11
6938;BME280;40040;42.706;23.372;2023-08-17T12:18:25;152827.69;;;34.98;46.17
6938;BME280;40040;42.706;23.372;2023-08-17T12:20:53;152716.09;;;34.53;46.36
6938;BME280;40040;42.706;23.372;2023-08-17T12:23:19;152643.34;;;34.24;48.05
6938;BME280;40040;42.706;23.372;2023-08-17T12:25:52;152633.31;;;34.20;47.44
6938;BME280;40040;42.706;23.372;2023-08-17T12:28:19;152643.34;;;34.24;48.18
6938;BME280;40040;42.706;23.372;2023-08-17T12:30:46;152699.81;;;34.47;46.98
6938;BME280;40040;42.706;23.372;2023-08-17T12:33:13;152599.50;;;34.06;47.20
6938;BME280;40040;42.706;23.372;2023-08-17T12:35:39;152620.78;;;34.15;47.85
6938;BME280;40040;42.706;23.372;2023-08-17T12:38:06;152494.19;;;33.64;49.15
6938;BME280;40040;42.706;23.372;2023-08-17T12:40:33;152449.06;;;33.46;50.25
6938;BME280;40040;42.706;23.372;2023-08-17T12:43:02;152470.34;;;33.55;49.24
6938;BME280;40040;42.706;23.372;2023-08-17T12:45:28;152474.16;;;33.56;48.79
6938;BME280;40040;42.706;23.372;2023-08-17T12:47:56;152425.25;;;33.37;48.93